createdAt,value
2023-04-24T00:00:17.131Z,100737.91
2023-04-24T00:02:48.981Z,100717.12
2023-04-24T00:05:17.979Z,100717.12
2023-04-24T00:07:47.328Z,100713.75
2023-04-24T00:10:15.346Z,100715.84
2023-04-24T00:12:43.632Z,100708.81
2023-04-24T00:15:12.084Z,100705.97
2023-04-24T00:17:40.005Z,100708.03
2023-04-24T00:20:09.198Z,100708.03
2023-04-24T00:22:37.176Z,100710.12
2023-04-24T00:25:05.614Z,100712.67
2023-04-24T00:27:33.573Z,100715.52
2023-04-24T00:30:01.433Z,100706.16
2023-04-24T00:32:29.397Z,100705.34
2023-04-24T00:34:57.408Z,100702.21
2023-04-24T00:37:25.293Z,100707.15
2023-04-24T00:39:53.291Z,100703.19
2023-04-24T00:42:21.113Z,100698.77
2023-04-24T00:44:49.696Z,100703.19
2023-04-24T00:47:17.573Z,100712.57
2023-04-24T00:49:45.658Z,100701.13
2023-04-24T00:52:14.860Z,100710.52
2023-04-24T00:54:42.809Z,100711.30
2023-04-24T00:57:10.759Z,100707.93
2023-04-24T00:59:39.371Z,100690.47
2023-04-24T01:02:08.038Z,100691.29
2023-04-24T01:04:36.242Z,100691.74
2023-04-24T01:07:04.545Z,100689.39
2023-04-24T01:09:32.563Z,100687.04
2023-04-24T01:12:00.484Z,100695.30
2023-04-24T01:14:28.465Z,100694.52
2023-04-24T01:16:56.357Z,100690.86
2023-04-24T01:19:24.227Z,100683.57
2023-04-24T01:21:55.719Z,100692.66
2023-04-24T01:24:23.656Z,100702.21
2023-04-24T01:26:51.868Z,100702.99
2023-04-24T01:29:19.805Z,100698.58
2023-04-24T01:31:47.881Z,100694.13
2023-04-24T01:34:16.840Z,100692.23
2023-04-24T01:36:48.017Z,100686.52
2023-04-24T01:39:16.181Z,100688.90
2023-04-24T01:41:44.059Z,100687.79
2023-04-24T01:44:12.321Z,100687.98
2023-04-24T01:46:40.712Z,100686.41
2023-04-24T01:49:08.938Z,100688.96
2023-04-24T01:51:36.898Z,100685.04
2023-04-24T01:54:05.222Z,100672.52
2023-04-24T01:56:36.009Z,100674.58
2023-04-24T01:59:06.050Z,100681.28
2023-04-24T02:01:41.154Z,100691.16
2023-04-24T02:04:10.249Z,100688.77
2023-04-24T02:06:38.324Z,100685.11
2023-04-24T02:09:06.363Z,100697.83
2023-04-24T02:11:34.268Z,100688.18
2023-04-24T02:14:02.115Z,100695.47
2023-04-24T02:16:34.538Z,100697.23
2023-04-24T02:19:02.454Z,100695.38
2023-04-24T02:21:30.376Z,100694.88
2023-04-24T02:23:58.298Z,100688.37
2023-04-24T02:26:26.306Z,100696.45
2023-04-24T02:28:54.281Z,100688.67
2023-04-24T02:31:22.362Z,100698.80
2023-04-24T02:33:50.656Z,100697.23
2023-04-24T02:36:18.584Z,100698.80
2023-04-24T02:38:46.555Z,100701.39
2023-04-24T02:41:14.457Z,100693.28
2023-04-24T02:43:42.511Z,100700.28
2023-04-24T02:46:10.541Z,100694.30
2023-04-24T02:48:38.465Z,100697.96
2023-04-24T02:51:06.551Z,100700.80
2023-04-24T02:53:34.687Z,100697.63
2023-04-24T02:56:02.587Z,100686.19
2023-04-24T02:58:30.439Z,100695.08
2023-04-24T03:00:58.551Z,100690.93
2023-04-24T03:03:26.899Z,100695.08
2023-04-24T03:05:55.059Z,100696.84
2023-04-24T03:08:23.087Z,100698.12
2023-04-24T03:10:51.736Z,100682.55
2023-04-24T03:13:19.656Z,100682.55
2023-04-24T03:15:48.783Z,100683.02
2023-04-24T03:18:16.864Z,100682.72
2023-04-24T03:20:45.060Z,100685.79
2023-04-24T03:23:12.929Z,100687.85
2023-04-24T03:25:41.215Z,100681.84
2023-04-24T03:28:09.074Z,100681.84
2023-04-24T03:30:37.129Z,100678.66
2023-04-24T03:33:05.210Z,100682.82
2023-04-24T03:35:33.118Z,100685.37
2023-04-24T03:38:00.983Z,100678.27
2023-04-24T03:40:29.523Z,100696.39
2023-04-24T03:42:57.356Z,100694.82
2023-04-24T03:45:25.165Z,100691.65
2023-04-24T03:47:53.111Z,100699.73
2023-04-24T03:50:21.044Z,100696.59
2023-04-24T03:52:48.917Z,100699.43
2023-04-24T03:55:17.039Z,100703.58
2023-04-24T03:57:44.985Z,100706.43
2023-04-24T04:00:13.736Z,100700.73
2023-04-24T04:02:41.805Z,100700.21
2023-04-24T04:05:10.583Z,100705.45
2023-04-24T04:07:38.525Z,100703.05
2023-04-24T04:10:06.954Z,100705.45
2023-04-24T04:12:34.954Z,100709.60
2023-04-24T04:15:02.887Z,100707.84
2023-04-24T04:17:30.774Z,100708.62
2023-04-24T04:19:58.719Z,100707.31
2023-04-24T04:22:26.788Z,100708.62
2023-04-24T04:24:54.786Z,100716.70
2023-04-24T04:27:23.689Z,100715.13
2023-04-24T04:29:51.536Z,100711.76
2023-04-24T04:32:19.470Z,100718.59
2023-04-24T04:34:47.747Z,100715.26
2023-04-24T04:37:16.666Z,100713.16
2023-04-24T04:39:44.835Z,100716.34
2023-04-24T04:42:12.885Z,100722.84
2023-04-24T04:44:41.013Z,100725.23
2023-04-24T04:47:09.968Z,100729.94
2023-04-24T04:49:38.314Z,100725.03
2023-04-24T04:52:06.274Z,100730.52
2023-04-24T04:54:34.279Z,100727.19
2023-04-24T04:57:04.302Z,100723.86
2023-04-24T04:59:32.361Z,100733.50
2023-04-24T05:02:00.312Z,100742.40
2023-04-24T05:04:28.885Z,100749.20
2023-04-24T05:06:57.114Z,100759.70
2023-04-24T05:09:25.190Z,100778.43
2023-04-24T05:11:53.115Z,100781.48
2023-04-24T05:14:21.508Z,100777.48
2023-04-24T05:16:49.528Z,100790.70
2023-04-24T05:19:17.606Z,100794.06
2023-04-24T05:21:45.588Z,100807.27
2023-04-24T05:24:13.534Z,100802.01
2023-04-24T05:26:41.420Z,100798.09
2023-04-24T05:29:09.264Z,100802.70
2023-04-24T05:31:37.289Z,100809.89
2023-04-24T05:34:05.252Z,100798.15
2023-04-24T05:36:33.399Z,100795.93
2023-04-24T05:39:01.429Z,100796.13
2023-04-24T05:41:29.417Z,100802.50
2023-04-24T05:43:57.407Z,100799.52
2023-04-24T05:46:25.360Z,100799.23
2023-04-24T05:48:53.363Z,100796.05
2023-04-24T05:51:21.256Z,100795.44
2023-04-24T05:53:49.141Z,100795.44
2023-04-24T05:56:18.363Z,100792.88
2023-04-24T05:58:46.523Z,100796.84
2023-04-24T06:01:16.573Z,100801.59
2023-04-24T06:03:44.586Z,100810.48
2023-04-24T06:06:12.662Z,100817.77
2023-04-24T06:08:40.593Z,100816.79
2023-04-24T06:11:08.518Z,100832.98
2023-04-24T06:13:36.474Z,100826.47
2023-04-24T06:16:04.538Z,100832.48
2023-04-24T06:18:32.924Z,100826.30
2023-04-24T06:21:00.882Z,100826.44
2023-04-24T06:23:28.980Z,100816.69
2023-04-24T06:25:56.949Z,100822.41
2023-04-24T06:28:24.864Z,100827.16
2023-04-24T06:30:52.760Z,100831.70
2023-04-24T06:33:22.269Z,100837.26
2023-04-24T06:35:51.681Z,100842.62
2023-04-24T06:38:19.624Z,100856.09
2023-04-24T06:40:47.645Z,100854.52
2023-04-24T06:43:17.101Z,100857.70
2023-04-24T06:45:46.305Z,100858.61
2023-04-24T06:48:14.592Z,100869.99
2023-04-24T06:50:42.565Z,100857.70
2023-04-24T06:53:11.914Z,100863.81
2023-04-24T06:55:39.763Z,100861.75
2023-04-24T06:58:08.513Z,100859.13
2023-04-24T07:00:36.445Z,100857.99
2023-04-24T07:03:05.134Z,100866.00
2023-04-24T07:05:33.666Z,100870.87
2023-04-24T07:08:01.638Z,100859.89
2023-04-24T07:10:30.934Z,100868.69
2023-04-24T07:12:59.121Z,100870.78
2023-04-24T07:15:27.200Z,100876.01
2023-04-24T07:17:55.102Z,100879.67
2023-04-24T07:20:23.080Z,100877.38
2023-04-24T07:22:51.482Z,100889.22
2023-04-24T07:25:19.583Z,100886.96
2023-04-24T07:27:47.673Z,100892.20
2023-04-24T07:30:15.801Z,100900.30
2023-04-24T07:32:43.783Z,100896.77
2023-04-24T07:35:12.198Z,100890.92
2023-04-24T07:37:40.214Z,100891.80
2023-04-24T07:40:08.816Z,100886.44
2023-04-24T07:42:36.952Z,100890.30
2023-04-24T07:45:05.317Z,100898.51
2023-04-24T07:47:34.210Z,100900.83
2023-04-24T07:50:02.274Z,100905.38
2023-04-24T07:52:30.139Z,100903.61
2023-04-24T07:55:00.722Z,100903.38
2023-04-24T07:57:28.606Z,100903.67
2023-04-24T07:59:57.161Z,100907.73
2023-04-24T08:02:28.661Z,100911.45
2023-04-24T08:04:57.700Z,100894.81
2023-04-24T08:07:26.932Z,100919.56
2023-04-24T08:09:54.794Z,100915.02
2023-04-24T08:12:22.831Z,100909.69
2023-04-24T08:14:50.819Z,100936.24
2023-04-24T08:17:19.555Z,100951.77
2023-04-24T08:19:50.547Z,100904.63
2023-04-24T08:22:18.416Z,100939.02
2023-04-24T08:24:46.273Z,100947.33
2023-04-24T08:27:14.369Z,100961.06
2023-04-24T08:29:42.498Z,100961.39
2023-04-24T08:32:10.619Z,100960.38
2023-04-24T08:34:38.657Z,100970.16
2023-04-24T08:37:06.634Z,100964.82
2023-04-24T08:39:34.790Z,100963.71
2023-04-24T08:42:07.703Z,100973.29
2023-04-24T08:44:36.863Z,100978.33
2023-04-24T08:47:05.511Z,100980.91
2023-04-24T08:49:35.095Z,100970.22
2023-04-24T08:52:04.519Z,100964.79
2023-04-24T08:54:34.286Z,100979.21
2023-04-24T08:57:03.945Z,100974.60
2023-04-24T08:59:33.621Z,100979.02
2023-04-24T09:02:02.432Z,100978.85
2023-04-24T09:04:31.674Z,100986.86
2023-04-24T09:07:00.654Z,100978.55
2023-04-24T09:09:29.408Z,100980.45
2023-04-24T09:11:58.190Z,100977.97
2023-04-24T09:14:26.378Z,100981.83
2023-04-24T09:16:54.383Z,100987.26
2023-04-24T09:19:24.074Z,100987.84
2023-04-24T09:21:54.981Z,100978.16
2023-04-24T09:24:27.363Z,100992.91
2023-04-24T09:27:01.013Z,100996.64
2023-04-24T09:29:29.251Z,100990.82
2023-04-24T09:31:57.313Z,101000.92
2023-04-24T09:34:27.406Z,100987.48
2023-04-24T09:36:55.980Z,101014.33
2023-04-24T09:39:23.868Z,101006.45
2023-04-24T09:41:53.783Z,101002.76
2023-04-24T09:44:26.576Z,100989.09
2023-04-24T09:46:57.263Z,100999.29
2023-04-24T09:49:26.641Z,101006.62
2023-04-24T09:52:04.494Z,101007.01
2023-04-24T09:54:32.973Z,101004.33
2023-04-24T09:57:02.465Z,100999.13
2023-04-24T09:59:30.901Z,100999.52
2023-04-24T10:02:00.909Z,101002.10
2023-04-24T10:04:30.189Z,101005.93
2023-04-24T10:06:59.615Z,101000.70
2023-04-24T10:09:29.370Z,101001.28
2023-04-24T10:11:57.556Z,101016.42
2023-04-24T10:14:27.861Z,101005.93
2023-04-24T10:16:57.331Z,101008.51
2023-04-24T10:19:28.485Z,101007.43
2023-04-24T10:21:58.413Z,101002.10
2023-04-24T10:24:26.423Z,101003.64
2023-04-24T10:26:55.205Z,101005.66
2023-04-24T10:29:24.736Z,101014.10
2023-04-24T10:31:52.905Z,101000.43
2023-04-24T10:34:23.853Z,101007.34
2023-04-24T10:36:57.795Z,101020.38
2023-04-24T10:39:27.785Z,101016.81
2023-04-24T10:42:00.879Z,101036.05
2023-04-24T10:44:38.630Z,101020.02
2023-04-24T10:47:06.602Z,101027.22
2023-04-24T10:49:34.851Z,101026.85
2023-04-24T10:52:04.824Z,101028.16
2023-04-24T10:54:36.922Z,101040.82
2023-04-24T10:57:20.371Z,101034.87
2023-04-24T10:59:49.709Z,101042.71
2023-04-24T11:02:18.332Z,101031.89
2023-04-24T11:04:47.686Z,101032.31
2023-04-24T11:07:16.017Z,101038.43
2023-04-24T11:09:45.276Z,101024.14
2023-04-24T11:12:16.343Z,101014.16
2023-04-24T11:15:00.406Z,101022.31
2023-04-24T11:17:32.544Z,101027.45
2023-04-24T11:20:25.873Z,101022.24
2023-04-24T11:22:57.144Z,101020.48
2023-04-24T11:25:25.667Z,101017.93
2023-04-24T11:28:06.051Z,101022.24
2023-04-24T11:30:35.875Z,101018.22
2023-04-24T11:33:08.191Z,101023.75
2023-04-24T11:35:43.040Z,101035.45
2023-04-24T11:38:24.017Z,101037.02
2023-04-24T11:40:53.848Z,101036.08
2023-04-24T11:43:22.414Z,101043.44
2023-04-24T11:45:51.204Z,101053.34
2023-04-24T11:48:24.020Z,101044.74
2023-04-24T11:50:52.955Z,101038.20
2023-04-24T11:53:24.989Z,101029.08
2023-04-24T11:55:53.016Z,101046.84
2023-04-24T11:58:24.481Z,101046.73
2023-04-24T12:01:00.045Z,101030.39
2023-04-24T12:03:28.103Z,101054.72
2023-04-24T12:06:08.700Z,101066.20
2023-04-24T12:08:38.460Z,101045.00
2023-04-24T12:11:11.848Z,101057.79
2023-04-24T12:13:39.802Z,101057.01
2023-04-24T12:16:08.020Z,101066.91
2023-04-24T12:18:36.108Z,101058.51
2023-04-24T12:21:28.885Z,101066.72
2023-04-24T12:23:57.333Z,101071.33
2023-04-24T12:26:25.592Z,101066.72
2023-04-24T12:28:53.656Z,101071.16
2023-04-24T12:31:23.249Z,101073.35
2023-04-24T12:33:51.358Z,101068.19
2023-04-24T12:36:19.274Z,101068.45
2023-04-24T12:38:48.857Z,101051.25
2023-04-24T12:41:17.106Z,101064.16
2023-04-24T12:43:55.567Z,101066.69
2023-04-24T12:46:23.715Z,101074.76
2023-04-24T12:48:52.017Z,101062.70
2023-04-24T12:51:19.916Z,101055.01
2023-04-24T12:53:47.834Z,101055.34
2023-04-24T12:56:15.777Z,101057.40
2023-04-24T12:58:43.738Z,101046.31
2023-04-24T13:01:11.708Z,101054.23
2023-04-24T13:03:40.023Z,101052.20
2023-04-24T13:06:08.286Z,101041.60
2023-04-24T13:08:36.268Z,101039.80
2023-04-24T13:11:04.154Z,101040.98
2023-04-24T13:13:32.486Z,101051.61
2023-04-24T13:16:00.425Z,101044.09
2023-04-24T13:18:28.324Z,101045.98
2023-04-24T13:20:56.285Z,101054.81
2023-04-24T13:23:25.322Z,101037.29
2023-04-24T13:25:53.273Z,101044.55
2023-04-24T13:28:21.147Z,101041.99
2023-04-24T13:30:50.264Z,101032.12
2023-04-24T13:33:19.682Z,101032.35
2023-04-24T13:35:47.506Z,101033.20
2023-04-24T13:38:15.468Z,101040.79
2023-04-24T13:40:43.408Z,101027.48
2023-04-24T13:43:11.725Z,101025.38
2023-04-24T13:45:40.214Z,101020.15
2023-04-24T13:48:08.208Z,101026.73
2023-04-24T13:50:36.140Z,101022.51
2023-04-24T13:53:04.720Z,101006.22
2023-04-24T13:55:33.319Z,101015.12
2023-04-24T13:58:01.374Z,101020.61
2023-04-24T14:00:29.836Z,100998.60
2023-04-24T14:02:57.936Z,101004.26
2023-04-24T14:05:26.017Z,100991.70
2023-04-24T14:07:53.961Z,101001.35
2023-04-24T14:10:21.917Z,100995.13
2023-04-24T14:12:50.013Z,100995.92
2023-04-24T14:15:18.006Z,101011.68
2023-04-24T14:17:46.073Z,100997.10
2023-04-24T14:20:14.897Z,100985.91
2023-04-24T14:22:43.270Z,100986.44
2023-04-24T14:25:11.945Z,100997.42
2023-04-24T14:27:39.986Z,100993.73
2023-04-24T14:30:09.083Z,100994.19
2023-04-24T14:32:37.832Z,100998.38
2023-04-24T14:35:06.356Z,100995.49
2023-04-24T14:37:34.639Z,100999.16
2023-04-24T14:42:34.514Z,100999.95
2023-04-24T14:45:02.475Z,101006.48
2023-04-24T14:47:31.598Z,101003.12
2023-04-24T14:49:59.629Z,101007.34
2023-04-24T14:52:27.788Z,101009.98
2023-04-24T14:54:55.771Z,100998.93
2023-04-24T14:57:23.872Z,101009.52
2023-04-24T14:59:51.983Z,101010.77
2023-04-24T15:02:22.244Z,101015.61
2023-04-24T15:04:50.749Z,101027.77
2023-04-24T15:07:18.892Z,101026.89
2023-04-24T15:09:46.945Z,101020.51
2023-04-24T15:12:15.106Z,101027.34
2023-04-24T15:14:43.005Z,101037.81
2023-04-24T15:17:11.100Z,101035.09
2023-04-24T15:19:38.997Z,101037.41
2023-04-24T15:22:07.096Z,101034.54
2023-04-24T15:24:35.175Z,101039.28
2023-04-24T15:27:03.915Z,101044.97
2023-04-24T15:29:32.016Z,101043.89
2023-04-24T15:32:00.264Z,101042.09
2023-04-24T15:34:28.271Z,101032.22
2023-04-24T15:36:56.530Z,101037.88
2023-04-24T15:39:26.142Z,101033.85
2023-04-24T15:41:55.470Z,101018.29
2023-04-24T15:44:23.950Z,101018.38
2023-04-24T15:46:53.509Z,101016.33
2023-04-24T15:49:21.447Z,101014.56
2023-04-24T15:51:49.341Z,101009.85
2023-04-24T15:54:17.366Z,101004.91
2023-04-24T15:56:46.722Z,101002.33
2023-04-24T15:59:14.866Z,101002.92
2023-04-24T16:01:42.952Z,100998.21
2023-04-24T16:04:11.044Z,100999.84
2023-04-24T16:06:39.197Z,101012.47
2023-04-24T16:09:07.665Z,101004.81
2023-04-24T16:11:37.835Z,101016.06
2023-04-24T16:14:05.897Z,101008.77
2023-04-24T16:16:34.066Z,101007.70
2023-04-24T16:19:02.164Z,101007.89
2023-04-24T16:21:30.077Z,101013.88
2023-04-24T16:23:57.990Z,101013.58
2023-04-24T16:26:25.963Z,101011.75
2023-04-24T16:28:53.852Z,101004.45
2023-04-24T16:31:21.995Z,100999.95
2023-04-24T16:33:49.971Z,101000.17
2023-04-24T16:36:17.968Z,101010.34
2023-04-24T16:38:46.303Z,100997.72
2023-04-24T16:41:14.384Z,101021.52
2023-04-24T16:43:42.641Z,101017.05
2023-04-24T16:46:10.690Z,101015.48
2023-04-24T16:48:38.706Z,101012.34
2023-04-24T16:51:07.727Z,101009.75
2023-04-24T16:53:35.605Z,101008.91
2023-04-24T16:56:04.403Z,101021.10
2023-04-24T16:58:32.953Z,101019.95
2023-04-24T17:01:00.938Z,101017.73
2023-04-24T17:03:29.160Z,101020.28
2023-04-24T17:05:57.584Z,101017.08
2023-04-24T17:08:25.985Z,101028.75
2023-04-24T17:10:53.951Z,101023.36
2023-04-24T17:13:21.821Z,101037.81
2023-04-24T17:15:49.687Z,101030.13
2023-04-24T17:18:19.020Z,101038.59
2023-04-24T17:20:46.973Z,101029.38
2023-04-24T17:23:15.024Z,101027.25
2023-04-24T17:25:43.170Z,101032.52
2023-04-24T17:28:27.668Z,101030.13
2023-04-24T17:30:59.208Z,101024.93
2023-04-24T17:33:31.877Z,101019.50
2023-04-24T17:36:02.588Z,101022.08
2023-04-24T17:38:31.355Z,101026.04
2023-04-24T17:40:59.835Z,101029.38
2023-04-24T17:43:28.249Z,101028.13
2023-04-24T17:46:02.871Z,101030.13
2023-04-24T17:48:31.031Z,101026.37
2023-04-24T17:50:58.930Z,101026.30
2023-04-24T17:53:26.859Z,101038.20
2023-04-24T17:55:55.614Z,101038.14
2023-04-24T17:58:23.548Z,101036.14
2023-04-24T18:00:51.429Z,101045.16
2023-04-24T18:03:19.588Z,101047.16
2023-04-24T18:05:47.738Z,101038.46
2023-04-24T18:08:15.733Z,101045.40
2023-04-24T18:10:44.949Z,101037.98
2023-04-24T18:13:13.129Z,101047.26
2023-04-24T18:15:44.533Z,101046.09
2023-04-24T18:18:12.956Z,101041.05
2023-04-24T18:20:40.960Z,101040.95
2023-04-24T18:23:08.892Z,101039.87
2023-04-24T18:25:36.817Z,101046.61
2023-04-24T18:28:04.778Z,101052.82
2023-04-24T18:30:33.821Z,101050.86
2023-04-24T18:33:01.922Z,101053.70
2023-04-24T18:35:29.881Z,101064.59
2023-04-24T18:37:57.862Z,101068.13
2023-04-24T18:40:25.758Z,101067.21
2023-04-24T18:42:53.666Z,101074.92
2023-04-24T18:45:21.641Z,101067.80
2023-04-24T18:47:49.814Z,101077.57
2023-04-24T18:50:17.889Z,101079.53
2023-04-24T18:52:45.772Z,101085.95
2023-04-24T18:55:13.648Z,101086.30
2023-04-24T18:57:41.575Z,101095.59
2023-04-24T19:00:10.224Z,101098.83
2023-04-24T19:02:38.346Z,101088.01
2023-04-24T19:05:06.851Z,101093.14
2023-04-24T19:07:34.747Z,101094.12
2023-04-24T19:10:02.649Z,101101.12
2023-04-24T19:12:30.608Z,101098.14
2023-04-24T19:14:59.299Z,101098.14
2023-04-24T19:17:27.352Z,101108.48
2023-04-24T19:19:55.332Z,101114.69
2023-04-24T19:22:23.194Z,101116.13
2023-04-24T19:24:51.215Z,101114.52
2023-04-24T19:27:19.211Z,101126.49
2023-04-24T19:29:47.379Z,101113.64
2023-04-24T19:32:15.310Z,101124.73
2023-04-24T19:34:43.405Z,101124.14
2023-04-24T19:37:11.382Z,101122.57
2023-04-24T19:39:39.516Z,101126.39
2023-04-24T19:42:07.808Z,101136.73
2023-04-24T19:44:35.849Z,101130.71
2023-04-24T19:47:03.923Z,101129.11
2023-04-24T19:49:32.067Z,101128.32
2023-04-24T19:51:59.944Z,101121.00
2023-04-24T19:54:28.438Z,101128.78
2023-04-24T19:56:57.248Z,101125.15
2023-04-24T19:59:25.203Z,101131.66
2023-04-24T20:01:54.211Z,101126.72
2023-04-24T20:04:24.612Z,101121.33
2023-04-24T20:06:52.735Z,101120.54
2023-04-24T20:09:20.681Z,101124.47
2023-04-24T20:11:52.315Z,101125.58
2023-04-24T20:14:20.515Z,101131.30
2023-04-24T20:16:48.527Z,101137.35
2023-04-24T20:19:16.812Z,101138.63
2023-04-24T20:21:44.876Z,101141.80
2023-04-24T20:24:12.932Z,101143.37
2023-04-24T20:26:41.019Z,101136.07
2023-04-24T20:29:10.204Z,101141.47
2023-04-24T20:31:38.598Z,101139.90
2023-04-24T20:34:07.586Z,101135.62
2023-04-24T20:36:36.040Z,101139.77
2023-04-24T20:39:08.152Z,101129.89
2023-04-24T20:41:37.014Z,101125.94
2023-04-24T20:44:05.555Z,101125.15
2023-04-24T20:46:34.337Z,101128.00
2023-04-24T20:49:02.587Z,101130.88
2023-04-24T20:51:31.237Z,101131.66
2023-04-24T20:53:59.301Z,101126.27
2023-04-24T20:56:27.304Z,101128.00
2023-04-24T20:58:56.948Z,101125.61
2023-04-24T21:01:25.596Z,101125.61
2023-04-24T21:03:54.348Z,101123.26
2023-04-24T21:06:23.165Z,101121.66
2023-04-24T21:08:52.040Z,101127.38
2023-04-24T21:11:19.940Z,101126.30
2023-04-24T21:13:48.001Z,101126.76
2023-04-24T21:16:16.163Z,101126.46
2023-04-24T21:18:44.178Z,101120.90
2023-04-24T21:21:12.205Z,101113.45
2023-04-24T21:23:40.468Z,101106.16
2023-04-24T21:26:08.637Z,101106.94
2023-04-24T21:28:37.808Z,101105.86
2023-04-24T21:31:05.842Z,101103.47
2023-04-24T21:33:34.183Z,101103.15
2023-04-24T21:36:02.268Z,101095.03
2023-04-24T21:38:30.588Z,101095.52
2023-04-24T21:40:58.519Z,101094.74
2023-04-24T21:43:37.154Z,101102.85
2023-04-24T21:46:12.046Z,101094.74
2023-04-24T21:48:40.077Z,101093.47
2023-04-24T21:51:07.963Z,101097.13
2023-04-24T21:53:35.952Z,101089.80
2023-04-24T21:56:04.066Z,101089.80
2023-04-24T21:58:32.118Z,101088.56
2023-04-24T22:01:00.182Z,101090.59
2023-04-24T22:03:28.226Z,101082.02
2023-04-24T22:05:56.292Z,101078.03
2023-04-24T22:08:24.243Z,101081.89
2023-04-24T22:10:53.299Z,101083.63
2023-04-24T22:13:21.464Z,101080.45
2023-04-24T22:15:52.174Z,101083.00
2023-04-24T22:18:20.348Z,101082.22
2023-04-24T22:20:48.581Z,101078.59
2023-04-24T22:23:16.631Z,101079.86
2023-04-24T22:25:44.598Z,101072.05
2023-04-24T22:28:12.750Z,101072.87
2023-04-24T22:30:40.754Z,101070.77
2023-04-24T22:33:09.078Z,101076.98
2023-04-24T22:35:38.620Z,101060.77
2023-04-24T22:38:06.646Z,101056.97
2023-04-24T22:40:36.406Z,101062.70
2023-04-24T22:43:05.093Z,101066.33
2023-04-24T22:45:33.524Z,101050.59
2023-04-24T22:48:01.771Z,101058.25
2023-04-24T22:50:30.422Z,101044.25
2023-04-24T22:52:58.279Z,101045.52
2023-04-24T22:55:26.259Z,101038.53
2023-04-24T22:57:54.181Z,101044.25
2023-04-24T23:00:22.122Z,101042.98
2023-04-24T23:02:50.017Z,101037.25
2023-04-24T23:05:17.982Z,101042.16
2023-04-24T23:07:45.857Z,101040.13
2023-04-24T23:10:13.685Z,101034.41
2023-04-24T23:12:41.602Z,101025.02
2023-04-24T23:15:11.107Z,101035.16
2023-04-24T23:17:39.439Z,101029.96
2023-04-24T23:20:08.134Z,101020.09
2023-04-24T23:22:36.032Z,101013.58
2023-04-24T23:25:04.010Z,101014.37
2023-04-24T23:27:31.994Z,101012.30
2023-04-24T23:29:59.880Z,101026.59
2023-04-24T23:32:27.757Z,101027.87
2023-04-24T23:34:55.752Z,101024.70
2023-04-24T23:37:24.030Z,101016.13
2023-04-24T23:39:52.320Z,101020.25
2023-04-24T23:42:20.234Z,101017.86
2023-04-24T23:44:48.098Z,101006.94
2023-04-24T23:47:16.032Z,101008.22
2023-04-24T23:49:43.863Z,101013.13
2023-04-24T23:52:11.792Z,101018.84
2023-04-24T23:54:39.898Z,101018.55
2023-04-24T23:57:07.777Z,101017.73
2023-04-24T23:59:35.930Z,101018.71
